LELN

Leon Airport

León, Spain
TAF LELN 261100Z 2612/2621 VRB05KT 9999 FEW030 BECMG 2612/2614 17010KT
Issued Valid From Valid To
Apr-26 @ 11:00 UTC
(3 hours ago)
Apr-26 @ 12:00 UTC
(2 hours ago)
Apr-26 @ 21:00 UTC
(in 7 hours)
Apr-26 @ 12:00 to Apr-26 @ 21:00
TAF LELN 261100Z 2612/2621 VRB05KT 9999 FEW030
Wind Visibility Clouds
Variable at 5 knots 10,000+ meters
  • Few at 3,000' AGL
Becoming Apr-26 @ 12:00 to Apr-26 @ 21:00
BECMG 2612/2614 17010KT
Wind Visibility Clouds
170° at 10 knots 10,000+ meters
  • Few at 3,000' AGL
TAF LELN 261100Z 2612/2621 VRB05KT 9999 FEW030 BECMG 2612/2614 17010KT
Issued Apr-26 @ 11:00 UTC
(3 hours ago)
Valid From Apr-26 @ 12:00 UTC
(2 hours ago)
Valid To Apr-26 @ 21:00 UTC
(in 7 hours)
Apr-26 @ 12:00 - Apr-26 @ 21:00
Wind Visibility
Variable at 5 knots 10,000+ meters
Clouds
  • Few at 3,000' AGL
Becoming Apr-26 @ 12:00 - Apr-26 @ 21:00
Wind Visibility
170° at 10 knots 10,000+ meters
Clouds
  • Few at 3,000' AGL